»·PEaware :: N510CJ O60-77S

N510CJ :: O60-77S

FLIGHT INFORMATION

Flight Status: Arrived
Operator: Privately registered:
United States
More flights under this callsign
Pilot: John G. (2195)
Aircraft: CESSNA 510 CITATION MUSTANG
(C510)
More flights by this aircraft type
Origin: O60 Cloverdale Mun
United States
Destination: 77S Hobby
United States
More flights between these airports :: More routes between these airports
Route: +NIECE J501 OED
File this flight plan on PilotEdge
Remarks:
Altitude:
(Current/Filed)
34,000ft
Speed:
(Current/Filed)
340kts
Departed: 27-May-17 01:00 PM
Arrived: 27-May-17 02:10 PM
Distance/Time
Traveled:
309nm/1:10
Distance/Time
To Go:
Arrived

Flight Plot

Page will automatically refresh every two minutes.

Flight plan parsing failed; only flown route is shown


Map Options




Map Legend


Flown Route
Filed Route
Departure Airport
Arrival Airport
Navaid (VOR, NDB)
Fix

Horizontal Profiles

Position Reports

Time Latitude Longitude Heading Altitude Ground
Speed
27-May-17 12:50 38.773796 -122.992378 112 274ft 0kts
27-May-17 12:51 38.773796 -122.992378 112 274ft 0kts
27-May-17 12:52 38.773795 -122.992378 112 274ft 0kts
27-May-17 12:53 38.773795 -122.992377 112 274ft 0kts
27-May-17 12:54 38.773795 -122.992376 112 274ft 0kts
27-May-17 12:55 38.773794 -122.992373 112 274ft 0kts
27-May-17 12:56 38.773793 -122.992371 112 274ft 0kts
27-May-17 12:57 38.773792 -122.992368 112 274ft 0kts
27-May-17 12:58 38.773792 -122.992366 112 274ft 0kts
27-May-17 12:59 38.773791 -122.992363 112 274ft 0kts
27-May-17 13:00 38.773361 -122.991301 150 274ft 19kts
27-May-17 13:01 38.773078 -122.990503 337 274ft 0kts
27-May-17 13:02 38.777740 -122.993534 332 297ft 107kts
27-May-17 13:03 38.821850 -122.995327 14 3342ft 189kts
27-May-17 13:04 38.871286 -122.972930 18 7147ft 193kts
27-May-17 13:05 38.901824 -122.959661 16 9124ft 193kts
27-May-17 13:06 38.958457 -122.935929 15 11193ft 204kts
27-May-17 13:07 39.010968 -122.914001 14 13489ft 198kts
27-May-17 13:08 39.065918 -122.891074 13 15330ft 216kts
27-May-17 13:09 39.124432 -122.874017 354 17355ft 213kts
27-May-17 13:10 39.186513 -122.877510 355 18773ft 241kts
27-May-17 13:11 39.251888 -122.879155 359 20970ft 227kts
27-May-17 13:12 39.315769 -122.879920 359 22608ft 233kts
27-May-17 13:13 39.382050 -122.880618 359 24067ft 241kts
27-May-17 13:14 39.449299 -122.881322 359 25519ft 243kts
27-May-17 13:15 39.517747 -122.882048 359 26730ft 247kts
27-May-17 13:16 39.587260 -122.882787 359 27738ft 252kts
27-May-17 13:17 39.657973 -122.883540 359 28610ft 256kts
27-May-17 13:18 39.729720 -122.884307 359 29340ft 260kts
27-May-17 13:19 39.802540 -122.885088 359 29986ft 262kts
27-May-17 13:20 39.875897 -122.885875 359 30565ft 265kts
27-May-17 13:21 39.950469 -122.886680 359 31068ft 271kts
27-May-17 13:22 40.026347 -122.887504 359 31570ft 275kts
27-May-17 13:23 40.103145 -122.888339 359 32162ft 275kts
27-May-17 13:24 40.166833 -122.889026 359 32704ft 274kts
27-May-17 13:25 40.243091 -122.889842 359 33487ft 274kts
27-May-17 13:26 40.333491 -122.890825 359 33902ft 289kts
27-May-17 13:27 40.402551 -122.891624 359 33899ft 306kts
27-May-17 13:28 40.478813 -122.892533 359 33898ft 317kts
27-May-17 13:29 40.579923 -122.893732 359 33897ft 326kts
27-May-17 13:30 40.656370 -122.894627 359 33897ft 330kts
27-May-17 13:31 40.748765 -122.895697 359 33897ft 334kts
27-May-17 13:32 40.857453 -122.896858 359 33897ft 336kts
27-May-17 13:33 40.951101 -122.897172 359 33897ft 336kts
27-May-17 13:34 41.028277 -122.897732 359 33896ft 331kts
27-May-17 13:35 41.120407 -122.898545 359 33897ft 331kts
27-May-17 13:36 41.212544 -122.899500 359 33897ft 331kts
27-May-17 13:37 41.304981 -122.900572 359 33896ft 331kts
27-May-17 13:38 41.397172 -122.901715 359 33897ft 332kts
27-May-17 13:39 41.489445 -122.902766 359 33897ft 332kts
27-May-17 13:40 41.581737 -122.903814 359 33897ft 332kts
27-May-17 13:41 41.674356 -122.904871 359 33897ft 332kts
27-May-17 13:42 41.766697 -122.905924 359 33897ft 332kts
27-May-17 13:43 41.859064 -122.906976 359 33897ft 332kts
27-May-17 13:44 41.951456 -122.908027 359 33897ft 332kts
27-May-17 13:45 42.044203 -122.909073 359 33824ft 334kts
27-May-17 13:46 42.138422 -122.910333 358 32267ft 343kts
27-May-17 13:47 42.233787 -122.915717 357 30874ft 341kts
27-May-17 13:48 42.329719 -122.921647 357 29168ft 347kts
27-May-17 13:49 42.426697 -122.927201 357 27373ft 350kts
27-May-17 13:50 42.524016 -122.932562 357 25576ft 350kts
27-May-17 13:51 42.620109 -122.937738 357 23804ft 337kts
27-May-17 13:52 42.712222 -122.941852 357 22102ft 325kts
27-May-17 13:53 42.801264 -122.946097 357 20498ft 317kts
27-May-17 13:54 42.888657 -122.950610 357 18900ft 313kts
27-May-17 13:55 42.975182 -122.955226 357 17302ft 310kts
27-May-17 13:56 43.059902 -122.959790 357 15757ft 297kts
27-May-17 13:57 43.141557 -122.964197 357 14259ft 291kts
27-May-17 13:58 43.222029 -122.968556 357 12761ft 288kts
27-May-17 13:59 43.301212 -122.972849 357 11310ft 279kts
27-May-17 14:00 43.377931 -122.977002 357 9911ft 274kts
27-May-17 14:01 43.448831 -122.981283 357 8612ft 233kts
27-May-17 14:02 43.510544 -122.984776 357 7493ft 219kts
27-May-17 14:03 43.571762 -122.988136 357 6391ft 220kts
27-May-17 14:04 43.629885 -122.991349 357 5333ft 198kts
27-May-17 14:05 43.682301 -122.994021 357 4379ft 180kts
27-May-17 14:06 43.732648 -122.996629 357 3479ft 180kts
27-May-17 14:07 43.779003 -122.998860 358 2744ft 151kts
27-May-17 14:08 43.819555 -123.003774 351 2255ft 139kts
27-May-17 14:09 43.857481 -123.008634 2 1786ft 130kts
27-May-17 14:10 43.889313 -123.002234 3 1149ft 98kts
27-May-17 14:11 43.915201 -123.004415 353 792ft 94kts
27-May-17 14:12 43.934219 -123.007170 354 542ft 14kts
27-May-17 14:13 43.933168 -123.007785 173 542ft 18kts
27-May-17 14:14 43.930544 -123.007613 226 542ft 0kts
27-May-17 14:15 43.930543 -123.007615 226 542ft 0kts
27-May-17 14:16 43.930543 -123.007615 226 542ft 0kts
27-May-17 14:17 43.930543 -123.007615 226 542ft 0kts
27-May-17 14:18 43.930543 -123.007615 226 542ft 0kts
27-May-17 14:19 43.930543 -123.007615 226 542ft 0kts
27-May-17 14:20 43.930543 -123.007615 226 542ft 0kts
27-May-17 14:21 43.930543 -123.007615 226 542ft 0kts
27-May-17 14:22 43.930543 -123.007615 226 542ft 0kts

Navigation Log

Ident Type
Flight plan parsing failed, navigation log unavailable